Evansville, Indiana
Current Conditions -  °F | °C
As of 7:54 AM on Wednesday 22 Oct 2014 (Local Time) from KEVV Reporting Station
Clear Clear  
Wind Chill:   Ceiling: Unl
Heat Index:   Visibility: 10mi
Dew Point:   Wind: 5mph
Humidity: 86%   Direction: 10°N
Pressure: 30.31"   Gusts: NA
Location:  37.98°N, 87.56°W
Report Text: KEVV 221254Z 01004KT 10SM CLR 07/05 A3031 RMK AO2 SLP263 T00720050
Loading
Personal Weather Stations






























Interactive Weather Map
Tropical Storm Tracking
New forecast layout! Learn more

10-Day Weather Forecast

Advertisements
Track Severe Weather on mobile